createdAt,value
2018-06-28T00:00:20.417Z,54.90
2018-06-28T00:02:48.884Z,54.90
2018-06-28T00:05:17.317Z,54.80
2018-06-28T00:07:45.840Z,54.90
2018-06-28T00:10:14.275Z,55.00
2018-06-28T00:12:42.733Z,55.10
2018-06-28T00:15:11.190Z,55.10
2018-06-28T00:17:40.221Z,55.30
2018-06-28T00:20:08.708Z,55.40
2018-06-28T00:22:37.158Z,55.50
2018-06-28T00:25:06.555Z,55.60
2018-06-28T00:27:34.984Z,55.70
2018-06-28T00:30:04.690Z,55.80
2018-06-28T00:32:33.187Z,56.00
2018-06-28T00:35:01.621Z,56.10
2018-06-28T00:37:30.101Z,56.20
2018-06-28T00:39:58.549Z,56.30
2018-06-28T00:42:26.990Z,56.80
2018-06-28T00:44:55.415Z,56.80
2018-06-28T00:47:23.856Z,57.30
2018-06-28T00:49:52.266Z,57.40
2018-06-28T00:52:20.718Z,57.50
2018-06-28T00:54:49.122Z,57.70
2018-06-28T00:57:20.548Z,58.00
2018-06-28T00:59:48.953Z,58.10
2018-06-28T01:02:17.393Z,58.40
2018-06-28T01:04:45.802Z,58.60
2018-06-28T01:07:14.261Z,58.70
2018-06-28T01:09:42.842Z,58.80
2018-06-28T01:12:11.321Z,59.00
2018-06-28T01:14:39.741Z,59.00
2018-06-28T01:17:08.964Z,59.10
2018-06-28T01:19:37.465Z,59.20
2018-06-28T01:22:06.009Z,59.30
2018-06-28T01:24:34.419Z,59.40
2018-06-28T01:27:02.869Z,59.60
2018-06-28T01:29:31.889Z,60.00
2018-06-28T01:32:00.555Z,60.60
2018-06-28T01:34:28.978Z,61.20
2018-06-28T01:36:57.390Z,61.90
2018-06-28T01:39:25.837Z,62.40
2018-06-28T01:42:05.356Z,63.00
2018-06-28T01:44:33.977Z,63.50
2018-06-28T01:47:02.503Z,64.30
2018-06-28T01:49:31.349Z,64.60
2018-06-28T01:51:59.798Z,65.60
2018-06-28T01:54:28.226Z,66.60
2018-06-28T01:56:56.978Z,67.00
2018-06-28T01:59:25.437Z,67.40
2018-06-28T02:01:53.951Z,68.00
2018-06-28T02:04:22.712Z,68.40
2018-06-28T02:06:51.284Z,68.80
2018-06-28T02:09:19.805Z,69.10
2018-06-28T02:11:48.390Z,70.00
2018-06-28T02:14:16.867Z,70.30
2018-06-28T02:16:45.390Z,70.40
2018-06-28T02:19:13.945Z,70.00
2018-06-28T02:21:42.495Z,69.90
2018-06-28T02:24:11.012Z,69.90
2018-06-28T02:26:39.583Z,69.90
2018-06-28T02:29:08.051Z,69.90
2018-06-28T02:31:36.517Z,69.90
2018-06-28T02:34:05.400Z,70.10
2018-06-28T02:36:34.282Z,70.50
2018-06-28T02:39:04.687Z,71.00
2018-06-28T02:41:34.145Z,71.50
2018-06-28T02:44:03.717Z,71.90
2018-06-28T02:46:32.465Z,72.30
2018-06-28T02:49:00.941Z,72.80
2018-06-28T02:51:29.472Z,73.20
2018-06-28T02:53:58.010Z,73.70
2018-06-28T02:56:26.486Z,74.10
2018-06-28T02:58:55.289Z,74.50
2018-06-28T03:01:23.709Z,74.90
2018-06-28T03:03:52.092Z,75.30
2018-06-28T03:06:20.549Z,75.50
2018-06-28T03:08:48.957Z,76.10
2018-06-28T03:11:17.807Z,77.00
2018-06-28T03:13:46.299Z,77.50
2018-06-28T03:16:14.844Z,77.90
2018-06-28T03:18:43.966Z,77.60
2018-06-28T03:21:12.492Z,78.00
2018-06-28T03:23:41.153Z,78.30
2018-06-28T03:26:09.780Z,78.60
2018-06-28T03:28:38.477Z,79.10
2018-06-28T03:31:07.306Z,78.70
2018-06-28T03:33:35.777Z,78.50
2018-06-28T03:36:04.379Z,77.70
2018-06-28T03:38:33.502Z,77.40
2018-06-28T03:41:02.423Z,76.80
2018-06-28T03:43:31.336Z,76.40
2018-06-28T03:46:00.653Z,76.10
2018-06-28T03:48:29.219Z,75.60
2018-06-28T03:50:58.068Z,75.40
2018-06-28T03:53:26.662Z,74.90
2018-06-28T03:55:55.179Z,74.50
2018-06-28T03:58:24.077Z,74.00
2018-06-28T04:00:52.584Z,73.40
2018-06-28T04:03:21.236Z,73.00
2018-06-28T04:05:49.787Z,70.60
2018-06-28T04:08:18.425Z,68.00
2018-06-28T04:10:47.130Z,63.60
2018-06-28T04:13:15.678Z,59.40
2018-06-28T04:15:44.274Z,56.50
2018-06-28T04:18:12.819Z,54.10
2018-06-28T04:20:41.526Z,51.20
2018-06-28T04:23:10.091Z,49.80
2018-06-28T04:25:38.581Z,48.40
2018-06-28T04:28:07.382Z,47.50
2018-06-28T04:30:36.085Z,45.50
2018-06-28T04:33:04.632Z,44.90
2018-06-28T04:35:33.396Z,42.70
2018-06-28T04:38:02.556Z,42.20
2018-06-28T04:40:31.102Z,41.50
2018-06-28T04:43:00.496Z,39.80
2018-06-28T04:45:29.107Z,38.20
2018-06-28T04:47:57.885Z,38.40
2018-06-28T04:50:26.949Z,37.30
2018-06-28T04:52:55.535Z,37.00
2018-06-28T04:55:24.455Z,36.00
2018-06-28T04:57:53.481Z,35.40
2018-06-28T05:00:22.124Z,34.80
2018-06-28T05:02:50.640Z,34.70
2018-06-28T05:05:19.392Z,33.80
2018-06-28T05:07:48.485Z,32.30
2018-06-28T05:10:17.421Z,32.50
2018-06-28T05:12:46.455Z,31.00
2018-06-28T05:15:15.083Z,30.60
2018-06-28T05:17:43.962Z,30.60
2018-06-28T05:20:12.714Z,30.50
2018-06-28T05:22:41.949Z,30.80
2018-06-28T05:25:10.858Z,30.60
2018-06-28T05:27:39.734Z,30.10
2018-06-28T05:30:08.602Z,29.70
2018-06-28T05:32:37.242Z,29.20
2018-06-28T05:35:06.893Z,29.30
2018-06-28T05:37:35.756Z,29.00
2018-06-28T05:40:04.438Z,28.20
2018-06-28T05:42:33.144Z,28.20
2018-06-28T05:45:01.682Z,27.90
2018-06-28T05:47:30.264Z,27.00
2018-06-28T05:49:58.874Z,26.30
2018-06-28T05:52:27.489Z,26.60
2018-06-28T05:54:56.051Z,26.90
2018-06-28T05:57:24.501Z,26.40
2018-06-28T05:59:53.236Z,26.70
2018-06-28T06:02:21.990Z,27.00
2018-06-28T06:04:50.529Z,27.30
2018-06-28T06:07:19.018Z,27.20
2018-06-28T06:09:47.697Z,27.40
2018-06-28T06:12:16.436Z,27.30
2018-06-28T06:14:45.090Z,25.70
2018-06-28T06:17:13.673Z,25.40
2018-06-28T06:19:42.135Z,25.20
2018-06-28T06:22:10.695Z,25.10
2018-06-28T06:24:39.162Z,25.30
2018-06-28T06:27:07.645Z,24.80
2018-06-28T06:29:36.071Z,24.80
2018-06-28T06:32:04.674Z,24.80
2018-06-28T06:34:33.103Z,24.70
2018-06-28T06:37:01.552Z,24.70
2018-06-28T06:39:30.963Z,25.50
2018-06-28T06:41:59.405Z,25.60
2018-06-28T06:44:28.274Z,25.30
2018-06-28T06:46:56.697Z,25.40
2018-06-28T06:49:25.213Z,25.30
2018-06-28T06:51:54.072Z,24.90
2018-06-28T06:54:22.504Z,24.60
2018-06-28T06:56:50.917Z,24.20
2018-06-28T06:59:20.325Z,24.10
2018-06-28T07:01:48.805Z,23.60
2018-06-28T07:04:17.221Z,23.30
2018-06-28T07:06:45.766Z,23.40
2018-06-28T07:09:14.263Z,23.90
2018-06-28T07:11:42.741Z,24.10
2018-06-28T07:14:11.838Z,23.80
2018-06-28T07:16:40.483Z,23.60
2018-06-28T07:19:09.290Z,24.00
2018-06-28T07:21:37.781Z,24.00
2018-06-28T07:24:06.373Z,24.30
2018-06-28T07:26:34.828Z,23.70
2018-06-28T07:29:03.393Z,23.90
2018-06-28T07:31:32.258Z,24.40
2018-06-28T07:34:00.730Z,23.60
2018-06-28T07:36:29.416Z,24.00
2018-06-28T07:38:58.194Z,24.10
2018-06-28T07:41:26.775Z,24.20
2018-06-28T07:43:55.728Z,23.90
2018-06-28T07:46:24.868Z,23.60
2018-06-28T07:48:54.484Z,23.80
2018-06-28T07:51:23.863Z,23.70
2018-06-28T07:53:52.932Z,23.50
2018-06-28T07:56:21.551Z,23.90
2018-06-28T07:58:50.419Z,24.40
2018-06-28T08:01:18.988Z,25.00
2018-06-28T08:03:47.860Z,24.70
2018-06-28T08:06:16.756Z,24.00
2018-06-28T08:08:45.428Z,23.50
2018-06-28T08:11:15.042Z,23.50
2018-06-28T08:13:43.739Z,24.20
2018-06-28T08:16:12.386Z,23.80
2018-06-28T08:18:40.878Z,24.60
2018-06-28T08:21:09.665Z,24.10
2018-06-28T08:23:38.200Z,24.90
2018-06-28T08:26:06.848Z,24.30
2018-06-28T08:28:35.792Z,23.30
2018-06-28T08:31:04.441Z,23.00
2018-06-28T08:33:33.038Z,22.90
2018-06-28T08:36:01.775Z,22.90
2018-06-28T08:38:30.567Z,24.10
2018-06-28T08:40:59.271Z,24.20
2018-06-28T08:43:27.899Z,24.50
2018-06-28T08:45:56.871Z,25.40
2018-06-28T08:48:25.575Z,25.50
2018-06-28T08:50:55.101Z,25.90
2018-06-28T08:53:24.160Z,26.50
2018-06-28T08:55:53.228Z,26.30
2018-06-28T08:58:22.590Z,25.90
2018-06-28T09:00:51.176Z,25.90
2018-06-28T09:03:21.212Z,25.00
2018-06-28T09:05:49.901Z,25.10
2018-06-28T09:08:18.710Z,25.00
2018-06-28T09:10:47.371Z,25.70
2018-06-28T09:13:15.948Z,26.10
2018-06-28T09:15:44.743Z,26.70
2018-06-28T09:18:13.394Z,26.60
2018-06-28T09:20:42.987Z,26.20
2018-06-28T09:23:11.617Z,25.60
2018-06-28T09:25:41.314Z,25.60
2018-06-28T09:28:10.492Z,25.80
2018-06-28T09:30:39.284Z,26.20
2018-06-28T09:33:07.993Z,26.60
2018-06-28T09:35:37.218Z,25.90
2018-06-28T09:38:06.246Z,25.80
2018-06-28T09:40:35.045Z,25.60
2018-06-28T09:43:03.923Z,25.80
2018-06-28T09:45:32.594Z,26.40
2018-06-28T09:48:01.375Z,26.90
2018-06-28T09:50:29.896Z,26.40
2018-06-28T09:52:59.044Z,25.80
2018-06-28T09:55:27.875Z,26.60
2018-06-28T09:57:56.851Z,26.90
2018-06-28T10:00:31.693Z,26.90
2018-06-28T10:03:01.140Z,27.10
2018-06-28T10:05:29.928Z,26.80
2018-06-28T10:07:58.611Z,27.00
2018-06-28T10:10:27.358Z,26.90
2018-06-28T10:12:55.940Z,27.60
2018-06-28T10:15:25.350Z,28.00
2018-06-28T10:17:54.965Z,27.70
2018-06-28T10:20:23.571Z,27.00
2018-06-28T10:22:53.444Z,26.20
2018-06-28T10:25:21.973Z,25.50
2018-06-28T10:27:50.467Z,24.60
2018-06-28T10:30:19.253Z,24.40
2018-06-28T10:32:47.829Z,25.40
2018-06-28T10:35:16.456Z,26.00
2018-06-28T10:37:45.188Z,26.10
2018-06-28T10:40:13.756Z,25.20
2018-06-28T10:42:42.274Z,25.00
2018-06-28T10:45:10.752Z,25.00
2018-06-28T10:47:39.234Z,25.50
2018-06-28T10:50:07.811Z,26.20
2018-06-28T10:52:36.259Z,25.80
2018-06-28T10:55:04.989Z,25.90
2018-06-28T10:57:33.478Z,26.30
2018-06-28T11:00:02.089Z,27.00
2018-06-28T11:02:30.616Z,27.20
2018-06-28T11:04:59.112Z,27.00
2018-06-28T11:07:27.562Z,27.10
2018-06-28T11:09:56.041Z,26.50
2018-06-28T11:12:25.318Z,26.70
2018-06-28T11:14:54.764Z,27.30
2018-06-28T11:17:25.077Z,28.30
2018-06-28T11:19:55.016Z,28.60
2018-06-28T11:22:24.619Z,29.30
2018-06-28T11:24:53.781Z,29.90
2018-06-28T11:27:24.040Z,30.20
2018-06-28T11:29:53.557Z,30.40
2018-06-28T11:32:22.167Z,30.70
2018-06-28T11:34:50.706Z,31.10
2018-06-28T11:37:19.721Z,31.10
2018-06-28T11:39:48.862Z,30.80
2018-06-28T11:42:17.889Z,30.90
2018-06-28T11:44:46.988Z,31.40
2018-06-28T11:47:15.977Z,32.40
2018-06-28T11:49:45.002Z,32.20
2018-06-28T11:52:14.715Z,32.30
2018-06-28T11:54:43.676Z,32.00
2018-06-28T11:57:13.749Z,31.60
2018-06-28T11:59:42.599Z,31.30
2018-06-28T12:02:11.517Z,31.10
2018-06-28T12:04:40.532Z,31.30
2018-06-28T12:07:09.133Z,31.90
2018-06-28T12:09:37.793Z,31.90
2018-06-28T12:12:06.353Z,31.50
2018-06-28T12:14:34.873Z,30.50
2018-06-28T12:17:03.411Z,30.10
2018-06-28T12:19:31.910Z,30.50
2018-06-28T12:22:01.254Z,31.30
2018-06-28T12:24:29.787Z,32.30
2018-06-28T12:26:58.208Z,31.90
2018-06-28T12:29:26.802Z,31.70
2018-06-28T12:31:56.134Z,31.70
2018-06-28T12:34:25.305Z,31.40
2018-06-28T12:36:54.241Z,31.80
2018-06-28T12:39:23.543Z,31.80
2018-06-28T12:41:52.321Z,32.20
2018-06-28T12:44:20.727Z,32.10
2018-06-28T12:48:00.721Z,32.60
2018-06-28T12:50:29.342Z,32.20
2018-06-28T12:53:01.037Z,32.30
2018-06-28T12:56:15.914Z,31.50
2018-06-28T12:58:44.504Z,32.20
2018-06-28T13:01:13.084Z,31.30
2018-06-28T13:03:41.560Z,31.30
2018-06-28T13:06:10.026Z,31.70
2018-06-28T13:08:38.641Z,31.90
2018-06-28T13:11:08.016Z,32.30
2018-06-28T13:13:36.559Z,31.70
2018-06-28T13:16:04.980Z,31.30
2018-06-28T13:18:33.671Z,31.40
2018-06-28T13:21:02.161Z,31.60
2018-06-28T13:23:30.639Z,31.30
2018-06-28T13:25:59.282Z,31.70
2018-06-28T13:28:28.059Z,30.80
2018-06-28T13:30:57.096Z,30.10
2018-06-28T13:33:26.536Z,30.20
2018-06-28T13:35:55.421Z,30.10
2018-06-28T13:38:24.879Z,30.70
2018-06-28T13:40:53.469Z,31.10
2018-06-28T13:43:22.015Z,31.30
2018-06-28T13:45:50.646Z,31.30
2018-06-28T13:48:19.633Z,31.30
2018-06-28T13:50:48.468Z,31.40
2018-06-28T13:53:17.048Z,31.30
2018-06-28T13:55:45.638Z,30.60
2018-06-28T13:58:14.181Z,30.80
2018-06-28T14:00:42.702Z,30.80
2018-06-28T14:03:11.194Z,30.60
2018-06-28T14:05:40.123Z,31.10
2018-06-28T14:08:08.752Z,31.50
2018-06-28T14:10:37.404Z,31.40
2018-06-28T14:13:05.930Z,31.30
2018-06-28T14:15:34.464Z,30.80
2018-06-28T14:18:02.969Z,30.70
2018-06-28T14:20:31.616Z,30.60
2018-06-28T14:23:01.092Z,30.50
2018-06-28T14:25:29.589Z,30.60
2018-06-28T14:27:58.167Z,31.20
2018-06-28T14:30:26.636Z,30.60
2018-06-28T14:32:56.385Z,31.20
2018-06-28T14:35:25.077Z,30.00
2018-06-28T14:37:53.658Z,30.30
2018-06-28T14:40:22.282Z,30.00
2018-06-28T14:42:50.745Z,30.20
2018-06-28T14:45:19.214Z,30.20
2018-06-28T14:47:47.793Z,30.20
2018-06-28T14:50:16.289Z,30.10
2018-06-28T14:52:44.837Z,31.50
2018-06-28T14:55:13.509Z,31.40
2018-06-28T14:57:41.945Z,31.30
2018-06-28T15:00:10.407Z,31.70
2018-06-28T15:02:38.942Z,32.10
2018-06-28T15:05:07.709Z,32.20
2018-06-28T15:07:36.149Z,31.00
2018-06-28T15:10:04.805Z,31.50
2018-06-28T15:12:33.289Z,30.90
2018-06-28T15:15:01.716Z,30.50
2018-06-28T15:17:30.184Z,30.80
2018-06-28T15:19:58.811Z,31.50
2018-06-28T15:22:27.344Z,32.10
2018-06-28T15:24:55.875Z,31.80
2018-06-28T15:27:24.406Z,31.80
2018-06-28T15:29:53.102Z,32.50
2018-06-28T15:32:21.529Z,32.50
2018-06-28T15:34:49.995Z,32.10
2018-06-28T15:37:18.485Z,31.70
2018-06-28T15:39:46.976Z,31.30
2018-06-28T15:42:15.425Z,32.30
2018-06-28T15:44:44.484Z,32.50
2018-06-28T15:47:14.036Z,33.10
2018-06-28T15:49:42.609Z,33.50
2018-06-28T15:52:11.047Z,32.70
2018-06-28T15:54:39.618Z,33.10
2018-06-28T15:57:08.056Z,33.40
2018-06-28T15:59:36.444Z,33.30
2018-06-28T16:02:05.298Z,32.40
2018-06-28T16:04:34.242Z,32.60
2018-06-28T16:07:02.765Z,33.30
2018-06-28T16:09:31.216Z,33.10
2018-06-28T16:11:59.699Z,33.10
2018-06-28T16:14:28.197Z,33.70
2018-06-28T16:16:56.674Z,33.30
2018-06-28T16:19:25.129Z,33.00
2018-06-28T16:21:53.620Z,32.40
2018-06-28T16:24:22.759Z,31.90
2018-06-28T16:26:51.266Z,31.50
2018-06-28T16:29:19.753Z,31.90
2018-06-28T16:31:48.212Z,32.50
2018-06-28T16:34:16.726Z,32.60
2018-06-28T16:36:45.218Z,32.80
2018-06-28T16:39:13.801Z,33.20
2018-06-28T16:41:43.196Z,33.40
2018-06-28T16:44:11.653Z,33.30
2018-06-28T16:46:40.392Z,33.20
2018-06-28T16:49:08.708Z,33.70
2018-06-28T16:51:37.184Z,33.70
2018-06-28T16:54:08.595Z,33.70
2018-06-28T16:56:37.307Z,33.70
2018-06-28T16:59:05.757Z,33.80
2018-06-28T17:01:34.761Z,33.70
2018-06-28T17:04:03.280Z,33.90
2018-06-28T17:06:32.614Z,33.80
2018-06-28T17:09:01.096Z,33.90
2018-06-28T17:11:29.565Z,33.80
2018-06-28T17:13:58.371Z,34.30
2018-06-28T17:16:26.832Z,34.10
2018-06-28T17:18:55.304Z,34.40
2018-06-28T17:21:24.056Z,34.00
2018-06-28T17:23:52.677Z,34.30
2018-06-28T17:26:21.177Z,34.30
2018-06-28T17:28:50.194Z,34.20
2018-06-28T17:31:18.767Z,34.50
2018-06-28T17:33:47.267Z,34.90
2018-06-28T17:36:15.739Z,34.60
2018-06-28T17:38:44.233Z,34.90
2018-06-28T17:41:12.666Z,35.20
2018-06-28T17:43:41.209Z,35.00
2018-06-28T17:46:09.713Z,34.70
2018-06-28T17:48:38.170Z,34.70
2018-06-28T17:51:06.915Z,35.00
2018-06-28T17:53:35.333Z,35.30
2018-06-28T17:56:04.563Z,35.40
2018-06-28T17:58:33.093Z,35.60
2018-06-28T18:01:01.550Z,35.60
2018-06-28T18:03:30.077Z,35.70
2018-06-28T18:05:58.510Z,35.70
2018-06-28T18:08:26.952Z,35.80
2018-06-28T18:10:55.378Z,35.90
2018-06-28T18:13:23.818Z,35.80
2018-06-28T18:15:52.551Z,35.50
2018-06-28T18:18:21.061Z,35.90
2018-06-28T18:20:49.542Z,35.90
2018-06-28T18:23:18.013Z,36.20
2018-06-28T18:25:46.534Z,36.30
2018-06-28T18:28:15.003Z,36.50
2018-06-28T18:30:43.457Z,36.60
2018-06-28T18:33:11.953Z,37.00
2018-06-28T18:35:40.362Z,36.90
2018-06-28T18:38:08.890Z,37.20
2018-06-28T18:40:37.529Z,37.50
2018-06-28T18:43:06.109Z,37.50
2018-06-28T18:45:35.646Z,37.60
2018-06-28T18:48:05.737Z,37.50
2018-06-28T18:50:34.923Z,37.70
2018-06-28T18:53:04.260Z,38.00
2018-06-28T18:55:33.211Z,38.10
2018-06-28T18:58:02.911Z,38.30
2018-06-28T19:00:31.409Z,38.30
2018-06-28T19:03:00.112Z,38.60
2018-06-28T19:05:28.680Z,38.70
2018-06-28T19:07:57.348Z,38.80
2018-06-28T19:10:31.134Z,39.00
2018-06-28T19:12:59.675Z,39.20
2018-06-28T19:15:33.596Z,39.50
2018-06-28T19:18:02.174Z,39.70
2018-06-28T19:20:30.762Z,39.80
2018-06-28T19:23:05.182Z,40.10
2018-06-28T19:25:34.746Z,40.20
2018-06-28T19:28:03.274Z,40.40
2018-06-28T19:30:37.766Z,40.60
2018-06-28T19:33:06.220Z,40.80
2018-06-28T19:35:35.126Z,41.10
2018-06-28T19:38:04.822Z,41.30
2018-06-28T19:40:39.721Z,41.60
2018-06-28T19:43:09.363Z,41.70
2018-06-28T19:45:37.930Z,41.90
2018-06-28T19:48:06.414Z,42.10
2018-06-28T19:50:40.861Z,42.40
2018-06-28T19:53:11.291Z,42.90
2018-06-28T19:55:39.977Z,43.20
2018-06-28T19:58:08.509Z,43.20
2018-06-28T20:00:42.273Z,43.40
2018-06-28T20:03:16.185Z,43.60
2018-06-28T20:05:45.358Z,43.80
2018-06-28T20:08:14.206Z,44.10
2018-06-28T20:10:42.745Z,44.30
2018-06-28T20:13:16.473Z,44.50
2018-06-28T20:15:53.096Z,44.70
2018-06-28T20:18:26.869Z,44.90
2018-06-28T20:20:55.928Z,45.10
2018-06-28T20:23:24.601Z,45.30
2018-06-28T20:25:53.261Z,45.50
2018-06-28T20:28:27.126Z,45.70
2018-06-28T20:31:00.861Z,45.80
2018-06-28T20:33:34.857Z,45.90
2018-06-28T20:36:04.960Z,46.10
2018-06-28T20:38:33.533Z,46.20
2018-06-28T20:41:02.897Z,46.40
2018-06-28T20:43:32.897Z,46.50
2018-06-28T20:46:01.434Z,46.60
2018-06-28T20:48:29.908Z,46.80
2018-06-28T20:50:58.480Z,47.00
2018-06-28T20:53:27.092Z,47.10
2018-06-28T20:55:55.685Z,47.20
2018-06-28T20:58:24.233Z,47.30
2018-06-28T21:00:52.849Z,47.50
2018-06-28T21:03:21.433Z,47.60
2018-06-28T21:05:51.102Z,48.00
2018-06-28T21:08:19.947Z,48.00
2018-06-28T21:10:48.366Z,48.00
2018-06-28T21:13:16.825Z,48.30
2018-06-28T21:15:45.442Z,48.30
2018-06-28T21:18:14.041Z,48.30
2018-06-28T21:20:42.579Z,48.50
2018-06-28T21:23:11.119Z,48.50
2018-06-28T21:25:39.647Z,48.60
2018-06-28T21:28:08.092Z,48.90
2018-06-28T21:30:36.658Z,48.90
2018-06-28T21:33:05.249Z,49.00
2018-06-28T21:35:34.359Z,49.10
2018-06-28T21:38:04.112Z,49.20
2018-06-28T21:40:33.483Z,49.30
2018-06-28T21:43:03.064Z,49.30
2018-06-28T21:45:31.521Z,49.30
2018-06-28T21:48:00.021Z,49.40
2018-06-28T21:50:28.544Z,49.50
2018-06-28T21:52:57.058Z,49.60
2018-06-28T21:55:25.579Z,49.70
2018-06-28T21:57:53.994Z,49.70
2018-06-28T22:00:38.284Z,49.70
2018-06-28T22:03:07.813Z,49.80
2018-06-28T22:05:36.382Z,50.00
2018-06-28T22:08:05.667Z,50.10
2018-06-28T22:10:34.914Z,50.20
2018-06-28T22:13:04.984Z,50.40
2018-06-28T22:15:34.665Z,50.50
2018-06-28T22:18:04.363Z,50.60
2018-06-28T22:20:34.368Z,50.80
2018-06-28T22:23:04.318Z,51.10
2018-06-28T22:25:34.319Z,51.40
2018-06-28T22:28:04.289Z,51.40
2018-06-28T22:30:34.241Z,51.20
2018-06-28T22:33:04.128Z,51.30
2018-06-28T22:35:33.890Z,51.30
2018-06-28T22:38:02.857Z,51.70
2018-06-28T22:40:31.338Z,52.00
2018-06-28T22:42:59.848Z,52.10
2018-06-28T22:45:28.289Z,52.20
2018-06-28T22:47:56.830Z,52.20
2018-06-28T22:50:25.363Z,52.50
2018-06-28T22:52:53.869Z,52.50
2018-06-28T22:55:22.410Z,52.90
2018-06-28T22:57:50.833Z,53.00
2018-06-28T23:00:23.412Z,53.20
2018-06-28T23:02:51.844Z,53.30
2018-06-28T23:05:20.600Z,53.60
2018-06-28T23:07:49.032Z,53.70
2018-06-28T23:10:17.449Z,54.10
2018-06-28T23:12:46.066Z,54.30
2018-06-28T23:15:14.576Z,54.40
2018-06-28T23:17:43.097Z,54.70
2018-06-28T23:20:11.673Z,54.80
2018-06-28T23:22:43.933Z,54.70
2018-06-28T23:25:13.359Z,54.80
2018-06-28T23:27:42.680Z,55.00
2018-06-28T23:30:12.226Z,55.20
2018-06-28T23:32:41.117Z,55.40
2018-06-28T23:35:10.214Z,55.50
2018-06-28T23:37:38.742Z,55.60
2018-06-28T23:40:07.351Z,55.80
2018-06-28T23:42:36.461Z,55.80
2018-06-28T23:45:05.456Z,56.00
2018-06-28T23:47:33.915Z,56.20
2018-06-28T23:50:02.433Z,56.40
2018-06-28T23:52:30.850Z,56.80
2018-06-28T23:54:59.353Z,56.70
2018-06-28T23:57:27.829Z,57.00
2018-06-28T23:59:56.346Z,57.20
